This demonstration page uses our WeatherBlox Daily Observations layout. Learn more.

38.88101, -77.10428

Hourly Observations for June 8, 2017

Temp ( °F °C ) Dew Point ( °F °C ) Humidity (%) Winds ( mph kmh ) Pressure ( in mb ) Visibility ( mi km ) Precip ( " mm )
12:52 am 00:52 Mostly Clear 60 15.6 54 12.2 80 80 N 5 7 30.03 1017 10 16.09344 0 0
1:52 am 01:52 Mostly Clear 58 14.4 54 12.2 87 87 N 5 7 30.03 1017 10 16.09344 0 0
2:52 am 02:52 Mostly Clear 58 14.4 54 12.2 87 87 N 6 9 30 1016 10 16.09344 0 0
3:52 am 03:52 Clear 57 13.9 53 11.7 87 87 N 5 7 30 1016 10 16.09344 0 0
4:52 am 04:52 Partly Cloudy 57 13.9 53 11.7 87 87 N 5 7 30 1016 10 16.09344 0 0
5:52 am 05:52 Mostly Cloudy 56 13.3 52 11.1 87 87 NNW 5 7 30 1016 10 16.09344 0 0
6:52 am 06:52 Mostly Cloudy 58 14.4 54 12.2 87 87 N 6 9 30 1016 10 16.09344 0 0
7:52 am 07:52 Mostly Cloudy 62 16.7 54 12.2 75 75 NE 5 7 30 1016 10 16.09344 0 0
8:52 am 08:52 Mostly Cloudy 64 17.8 53 11.7 68 68 NE 8 13 30 1016 10 16.09344 0 0
9:52 am 09:52 Mostly Cloudy 66 18.9 52 11.1 61 61 NE 12 19 30 1016 10 16.09344 0 0
10:52 am 10:52 Mostly Cloudy 67 19.4 52 11.1 59 59 NE 10 17 29.97 1015 10 16.09344 0 0
11:52 am 11:52 Mostly Cloudy 71 21.7 51 10.6 49 49 ENE 9 15 29.97 1015 10 16.09344 0 0
12:52 pm 12:52 Mostly Cloudy 71 21.7 50 10 47 47 NE 12 19 29.94 1014 10 16.09344 0 0
1:52 pm 13:52 Mostly Cloudy 73 22.8 48 8.9 41 41 NE 13 20 29.91 1013 10 16.09344 0 0
2:52 pm 14:52 Mostly Cloudy 74 23.3 48 8.9 40 40 NE 6 9 29.91 1013 10 16.09344 0 0
3:52 pm 15:52 Partly Cloudy 75 23.9 48 8.9 39 39 undefined N/A 29.88 1012 10 16.09344 0 0
4:13 pm 16:13 Partly Cloudy 75 23.9 50 10 41 41 NE 13 20 29.88 1012 10 16.09344 0 0
4:52 pm 16:52 Mostly Sunny 74 23.3 47 8.3 38 38 NE 10 17 29.85 1011 10 16.09344 0 0
5:52 pm 17:52 Mostly Sunny 74 23.3 49 9.4 41 41 NE 10 17 29.83 1010 10 16.09344 0 0
6:52 pm 18:52 Mostly Sunny 73 22.8 49 9.4 43 43 ENE 7 11 29.83 1010 10 16.09344 0 0
7:52 pm 19:52 Mostly Sunny 71 21.7 50 10 47 47 E 6 9 29.83 1010 10 16.09344 0 0
8:52 pm 20:52 Mostly Clear 69 20.6 50 10 51 51 ESE 7 11 29.83 1010 10 16.09344 0 0
9:52 pm 21:52 Mostly Clear 66 18.9 51 10.6 59 59 S 3 6 29.83 1010 10 16.09344 0 0
10:52 pm 22:52 Mostly Clear 64 17.8 53 11.7 68 68 SW 6 9 29.83 1010 10 16.09344 0 0
11:52 pm 23:52 Mostly Clear 62 16.7 51 10.6 67 67 SW 5 7 29.83 1010 10 16.09344 0 0

Powered by AerisWeather